createdAt,value
2018-10-05T00:01:40.240Z,13.17
2018-10-05T00:04:10.959Z,13.14
2018-10-05T00:06:41.245Z,13.00
2018-10-05T00:09:12.833Z,12.56
2018-10-05T00:11:43.367Z,12.97
2018-10-05T00:14:13.629Z,13.32
2018-10-05T00:16:44.164Z,13.75
2018-10-05T00:19:15.404Z,14.04
2018-10-05T00:21:45.669Z,14.25
2018-10-05T00:24:16.250Z,14.43
2018-10-05T00:26:46.895Z,14.57
2018-10-05T00:29:17.729Z,14.68
2018-10-05T00:31:48.273Z,14.67
2018-10-05T00:34:18.537Z,14.69
2018-10-05T00:36:49.112Z,14.77
2018-10-05T00:39:19.605Z,14.73
2018-10-05T00:41:50.145Z,14.75
2018-10-05T00:44:20.674Z,14.72
2018-10-05T00:46:51.214Z,14.59
2018-10-05T00:49:21.743Z,14.71
2018-10-05T00:51:52.297Z,14.79
2018-10-05T00:54:22.856Z,14.82
2018-10-05T00:56:53.404Z,14.70
2018-10-05T00:59:23.949Z,14.64
2018-10-05T01:01:54.933Z,14.66
2018-10-05T01:04:25.302Z,14.67
2018-10-05T01:06:56.048Z,14.70
2018-10-05T01:09:26.373Z,14.58
2018-10-05T01:11:56.629Z,14.47
2018-10-05T01:14:27.195Z,14.26
2018-10-05T01:16:59.748Z,13.55
2018-10-05T01:19:29.962Z,13.24
2018-10-05T01:22:01.276Z,13.14
2018-10-05T01:24:33.700Z,13.37
2018-10-05T01:27:04.229Z,13.71
2018-10-05T01:29:35.388Z,13.69
2018-10-05T01:32:05.945Z,13.12
2018-10-05T01:34:36.209Z,13.41
2018-10-05T01:37:06.760Z,13.44
2018-10-05T01:39:37.321Z,13.55
2018-10-05T01:42:07.584Z,12.77
2018-10-05T01:44:38.112Z,13.29
2018-10-05T01:47:08.675Z,12.96
2018-10-05T01:49:39.241Z,12.71
2018-10-05T01:52:09.803Z,12.74
2018-10-05T01:54:45.934Z,12.39
2018-10-05T01:57:16.460Z,12.33
2018-10-05T01:59:47.306Z,12.22
2018-10-05T02:02:18.053Z,12.05
2018-10-05T02:04:48.696Z,11.82
2018-10-05T02:07:19.225Z,11.83
2018-10-05T02:09:49.677Z,11.68
2018-10-05T02:12:20.586Z,12.02
2018-10-05T02:14:50.817Z,11.82
2018-10-05T02:17:21.090Z,12.02
2018-10-05T02:19:51.719Z,12.04
2018-10-05T02:22:22.234Z,12.28
2018-10-05T02:24:52.871Z,12.05
2018-10-05T02:27:23.472Z,11.85
2018-10-05T02:29:54.785Z,12.20
2018-10-05T02:32:25.324Z,12.23
2018-10-05T02:34:55.861Z,12.10
2018-10-05T02:37:26.810Z,12.30
2018-10-05T02:39:57.301Z,10.91
2018-10-05T02:45:29.514Z,12.47
2018-10-05T02:47:59.825Z,12.21
2018-10-05T02:50:30.513Z,12.41
2018-10-05T02:53:01.455Z,12.45
2018-10-05T02:55:31.729Z,12.41
2018-10-05T02:58:02.256Z,12.62
2018-10-05T03:00:44.816Z,12.68
2018-10-05T03:03:15.416Z,13.08
2018-10-05T03:05:45.736Z,13.37
2018-10-05T03:08:16.489Z,13.26
2018-10-05T03:10:47.015Z,13.43
2018-10-05T03:13:17.864Z,13.21
2018-10-05T03:15:48.589Z,13.36
2018-10-05T03:18:19.632Z,13.30
2018-10-05T03:20:50.363Z,13.22
2018-10-05T03:23:21.077Z,13.23
2018-10-05T03:25:51.719Z,13.42
2018-10-05T03:28:22.416Z,13.58
2018-10-05T03:30:52.936Z,13.62
2018-10-05T03:33:23.477Z,13.28
2018-10-05T03:35:54.828Z,12.50
2018-10-05T03:38:25.322Z,11.89
2018-10-05T03:40:56.144Z,12.36
2018-10-05T03:43:27.341Z,12.67
2018-10-05T03:45:58.313Z,12.64
2018-10-05T03:48:28.582Z,12.58
2018-10-05T03:51:00.399Z,12.90
2018-10-05T03:53:30.972Z,13.15
2018-10-05T03:56:01.888Z,13.30
2018-10-05T03:58:32.611Z,13.26
2018-10-05T04:01:03.157Z,13.30
2018-10-05T04:03:34.649Z,13.37
2018-10-05T04:06:04.976Z,13.35
2018-10-05T04:08:36.177Z,12.46
2018-10-05T04:11:06.758Z,10.62
2018-10-05T04:13:39.919Z,10.86
2018-10-05T04:16:10.467Z,11.17
2018-10-05T04:18:41.190Z,11.17
2018-10-05T04:21:12.436Z,10.55
2018-10-05T04:23:43.071Z,9.86
2018-10-05T04:26:13.659Z,10.32
2018-10-05T04:28:44.154Z,11.21
2018-10-05T04:31:14.988Z,11.88
2018-10-05T04:33:46.078Z,11.66
2018-10-05T04:36:17.113Z,11.79
2018-10-05T04:38:48.104Z,11.73
2018-10-05T04:41:18.689Z,12.22
2018-10-05T04:43:50.192Z,12.46
2018-10-05T04:46:20.804Z,12.70
2018-10-05T04:48:51.053Z,12.77
2018-10-05T04:51:21.609Z,12.86
2018-10-05T04:53:52.824Z,12.65
2018-10-05T04:56:23.732Z,12.17
2018-10-05T04:58:54.114Z,12.10
2018-10-05T05:01:24.402Z,12.39
2018-10-05T05:03:54.937Z,12.46
2018-10-05T05:06:25.477Z,12.69
2018-10-05T05:08:56.189Z,12.86
2018-10-05T05:11:26.880Z,12.97
2018-10-05T05:13:57.132Z,12.71
2018-10-05T05:16:27.684Z,12.24
2018-10-05T05:18:59.125Z,12.11
2018-10-05T05:21:29.739Z,12.30
2018-10-05T05:24:00.932Z,12.32
2018-10-05T05:26:31.496Z,12.67
2018-10-05T05:29:01.997Z,12.82
2018-10-05T05:31:32.584Z,12.94
2018-10-05T05:34:03.194Z,12.99
2018-10-05T05:36:33.601Z,12.90
2018-10-05T05:39:05.344Z,12.81
2018-10-05T05:41:35.946Z,12.50
2018-10-05T05:44:06.220Z,12.00
2018-10-05T05:46:36.808Z,12.06
2018-10-05T05:49:07.572Z,12.02
2018-10-05T05:51:37.798Z,12.29
2018-10-05T05:54:08.098Z,12.12
2018-10-05T05:56:38.781Z,12.19
2018-10-05T05:59:09.045Z,12.14
2018-10-05T06:01:39.305Z,11.97
2018-10-05T06:04:09.557Z,12.30
2018-10-05T06:06:40.998Z,12.37
2018-10-05T06:09:11.637Z,11.82
2018-10-05T06:11:42.108Z,11.57
2018-10-05T06:14:12.620Z,11.47
2018-10-05T06:16:42.872Z,11.45
2018-10-05T06:19:13.474Z,11.20
2018-10-05T06:21:44.274Z,11.03
2018-10-05T06:24:15.106Z,10.98
2018-10-05T06:26:45.560Z,11.29
2018-10-05T06:29:16.846Z,11.23
2018-10-05T06:31:48.113Z,11.37
2018-10-05T06:34:18.485Z,11.12
2018-10-05T06:36:48.813Z,11.18
2018-10-05T06:39:19.427Z,11.33
2018-10-05T06:41:50.065Z,11.29
2018-10-05T06:44:20.572Z,11.10
2018-10-05T06:46:51.207Z,11.46
2018-10-05T06:49:22.010Z,11.49
2018-10-05T06:51:52.573Z,11.50
2018-10-05T06:54:23.131Z,11.75
2018-10-05T06:56:53.685Z,12.05
2018-10-05T06:59:25.492Z,12.21
2018-10-05T07:01:55.877Z,12.76
2018-10-05T07:04:26.289Z,12.76
2018-10-05T07:06:57.396Z,12.69
2018-10-05T07:09:27.941Z,12.88
2018-10-05T07:11:59.100Z,13.06
2018-10-05T07:14:29.760Z,13.04
2018-10-05T07:17:00.372Z,13.06
2018-10-05T07:19:31.284Z,12.82
2018-10-05T07:22:02.618Z,13.12
2018-10-05T07:24:34.591Z,13.21
2018-10-05T07:27:05.190Z,13.17
2018-10-05T07:29:35.741Z,13.52
2018-10-05T07:32:06.300Z,14.17
2018-10-05T07:34:36.917Z,14.60
2018-10-05T07:37:07.567Z,14.11
2018-10-05T07:39:38.237Z,13.64
2018-10-05T07:42:08.990Z,13.75
2018-10-05T07:44:42.302Z,13.71
2018-10-05T07:47:12.791Z,14.32
2018-10-05T07:49:43.292Z,13.84
2018-10-05T07:52:13.935Z,13.97
2018-10-05T07:54:44.468Z,14.32
2018-10-05T07:57:15.433Z,13.57
2018-10-05T07:59:46.029Z,14.69
2018-10-05T08:02:16.733Z,14.83
2018-10-05T08:04:46.936Z,15.43
2018-10-05T08:07:17.913Z,15.20
2018-10-05T08:09:48.649Z,14.91
2018-10-05T08:12:18.881Z,15.32
2018-10-05T08:14:49.693Z,15.60
2018-10-05T08:17:20.203Z,15.31
2018-10-05T08:19:50.817Z,15.64
2018-10-05T08:22:21.586Z,16.06
2018-10-05T08:24:52.304Z,16.21
2018-10-05T08:27:22.543Z,16.33
2018-10-05T08:29:53.174Z,16.56
2018-10-05T08:32:23.704Z,16.66
2018-10-05T08:34:53.929Z,16.56
2018-10-05T08:37:24.472Z,16.91
2018-10-05T08:39:54.759Z,17.01
2018-10-05T08:42:25.536Z,17.19
2018-10-05T08:44:55.784Z,17.46
2018-10-05T08:47:26.420Z,17.38
2018-10-05T08:49:57.045Z,17.59
2018-10-05T08:52:27.619Z,17.49
2018-10-05T08:54:58.412Z,17.92
2018-10-05T08:57:29.169Z,18.20
2018-10-05T08:59:59.823Z,18.36
2018-10-05T09:02:30.682Z,18.71
2018-10-05T09:05:01.638Z,18.86
2018-10-05T09:07:32.165Z,19.17
2018-10-05T09:10:03.425Z,20.44
2018-10-05T09:12:33.981Z,25.19
2018-10-05T09:15:04.993Z,29.06
2018-10-05T09:17:35.287Z,29.66
2018-10-05T09:20:06.326Z,28.88
2018-10-05T09:22:37.076Z,30.69
2018-10-05T09:25:08.124Z,31.54
2018-10-05T09:27:39.333Z,33.41
2018-10-05T09:30:09.979Z,32.99
2018-10-05T09:32:41.065Z,31.82
2018-10-05T09:35:11.592Z,32.34
2018-10-05T09:37:42.504Z,32.31
2018-10-05T09:40:13.362Z,31.58
2018-10-05T09:42:44.018Z,31.14
2018-10-05T09:45:14.640Z,30.24
2018-10-05T09:47:45.288Z,31.64
2018-10-05T09:50:16.477Z,31.04
2018-10-05T09:52:47.137Z,30.56
2018-10-05T09:55:18.080Z,30.56
2018-10-05T09:57:48.331Z,30.76
2018-10-05T10:02:29.553Z,31.80
2018-10-05T10:04:59.849Z,31.54
2018-10-05T10:07:30.121Z,30.92
2018-10-05T10:10:00.748Z,31.68
2018-10-05T10:12:33.111Z,32.92
2018-10-05T10:15:05.599Z,32.62
2018-10-05T10:17:36.241Z,29.95
2018-10-05T10:20:06.791Z,29.68
2018-10-05T10:22:37.468Z,30.30
2018-10-05T10:25:08.021Z,28.51
2018-10-05T10:27:38.734Z,27.80
2018-10-05T10:30:09.453Z,30.70
2018-10-05T10:32:43.781Z,31.51
2018-10-05T10:35:14.485Z,30.52
2018-10-05T10:37:44.979Z,28.75
2018-10-05T10:40:15.657Z,28.60
2018-10-05T10:42:46.240Z,26.54
2018-10-05T10:45:18.181Z,24.08
2018-10-05T10:47:48.814Z,24.09
2018-10-05T10:50:19.572Z,23.10
2018-10-05T10:52:50.384Z,23.13
2018-10-05T10:55:21.132Z,22.97
2018-10-05T10:57:51.670Z,23.23
2018-10-05T11:00:21.905Z,23.07
2018-10-05T11:02:52.496Z,23.15
2018-10-05T11:05:23.282Z,23.20
2018-10-05T11:07:53.919Z,23.47
2018-10-05T11:10:24.707Z,23.33
2018-10-05T11:12:55.200Z,24.09
2018-10-05T11:15:25.554Z,24.40
2018-10-05T11:17:56.284Z,24.22
2018-10-05T11:20:27.114Z,23.92
2018-10-05T11:22:57.893Z,23.72
2018-10-05T11:25:28.783Z,24.07
2018-10-05T11:27:59.488Z,23.36
2018-10-05T11:30:31.159Z,23.46
2018-10-05T11:33:03.481Z,22.73
2018-10-05T11:35:34.066Z,23.12
2018-10-05T11:38:04.865Z,23.38
2018-10-05T11:40:35.501Z,23.31
2018-10-05T11:43:06.337Z,23.83
2018-10-05T11:45:36.825Z,23.62
2018-10-05T11:48:07.529Z,23.26
2018-10-05T11:50:38.041Z,23.99
2018-10-05T11:53:09.427Z,24.04
2018-10-05T11:55:41.264Z,23.42
2018-10-05T11:58:11.858Z,23.38
2018-10-05T12:00:42.470Z,23.67
2018-10-05T12:03:12.717Z,24.54
2018-10-05T12:05:43.368Z,23.60
2018-10-05T12:08:13.845Z,23.85
2018-10-05T12:10:44.381Z,23.58
2018-10-05T12:13:14.872Z,23.67
2018-10-05T12:15:45.681Z,24.30
2018-10-05T12:18:16.035Z,24.07
2018-10-05T12:20:46.536Z,23.91
2018-10-05T12:23:16.777Z,24.11
2018-10-05T12:25:47.304Z,23.93
2018-10-05T12:28:17.841Z,24.27
2018-10-05T12:30:48.383Z,23.63
2018-10-05T12:33:18.977Z,24.29
2018-10-05T12:35:49.727Z,23.86
2018-10-05T12:38:21.794Z,23.34
2018-10-05T12:40:52.633Z,23.18
2018-10-05T12:43:23.454Z,23.07
2018-10-05T12:45:53.964Z,23.47
2018-10-05T12:48:24.469Z,23.45
2018-10-05T12:50:55.053Z,24.17
2018-10-05T12:53:26.505Z,24.43
2018-10-05T12:55:57.018Z,23.75
2018-10-05T12:58:27.623Z,23.65
2018-10-05T13:00:58.610Z,24.23
2018-10-05T13:03:29.237Z,24.37
2018-10-05T13:06:00.301Z,23.53
2018-10-05T13:08:30.812Z,24.20
2018-10-05T13:11:01.141Z,23.82
2018-10-05T13:13:31.729Z,23.11
2018-10-05T13:16:02.294Z,23.20
2018-10-05T13:18:33.237Z,24.14
2018-10-05T13:21:03.888Z,24.28
2018-10-05T13:23:34.392Z,23.92
2018-10-05T13:26:04.932Z,24.12
2018-10-05T13:28:35.557Z,24.27
2018-10-05T13:31:06.501Z,24.60
2018-10-05T13:33:37.018Z,22.89
2018-10-05T13:36:07.593Z,23.33
2018-10-05T13:38:38.246Z,23.26
2018-10-05T13:41:09.085Z,22.79
2018-10-05T13:43:40.176Z,23.02
2018-10-05T13:46:10.677Z,22.74
2018-10-05T13:48:46.307Z,23.34
2018-10-05T13:51:17.055Z,23.36
2018-10-05T13:53:47.571Z,22.47
2018-10-05T13:56:18.181Z,22.93
2018-10-05T13:58:52.740Z,22.97
2018-10-05T14:01:23.252Z,23.21
2018-10-05T14:03:53.476Z,22.91
2018-10-05T14:06:23.842Z,22.75
2018-10-05T14:08:54.332Z,22.65
2018-10-05T14:11:24.571Z,23.02
2018-10-05T14:13:54.890Z,23.35
2018-10-05T14:16:25.432Z,22.73
2018-10-05T14:18:55.990Z,22.50
2018-10-05T14:21:26.473Z,22.51
2018-10-05T14:23:56.991Z,22.54
2018-10-05T14:26:27.532Z,22.73
2018-10-05T14:28:57.805Z,22.75
2018-10-05T14:31:28.181Z,22.96
2018-10-05T14:33:58.752Z,22.75
2018-10-05T14:36:29.434Z,22.81
2018-10-05T14:38:59.668Z,22.78
2018-10-05T14:41:30.394Z,22.41
2018-10-05T14:44:00.833Z,22.29
2018-10-05T14:46:31.575Z,21.98
2018-10-05T14:49:02.132Z,21.76
2018-10-05T14:51:32.790Z,21.77
2018-10-05T14:54:04.294Z,21.65
2018-10-05T14:56:35.465Z,21.51
2018-10-05T14:59:06.004Z,21.44
2018-10-05T15:01:36.405Z,21.30
2018-10-05T15:04:06.894Z,21.19
2018-10-05T15:06:37.801Z,21.12
2018-10-05T15:09:08.358Z,21.19
2018-10-05T15:11:38.871Z,21.28
2018-10-05T15:14:09.196Z,21.31
2018-10-05T15:16:39.490Z,20.78
2018-10-05T15:19:09.998Z,20.67
2018-10-05T15:21:40.517Z,20.72
2018-10-05T15:24:11.200Z,20.51
2018-10-05T15:26:41.639Z,20.53
2018-10-05T15:29:12.172Z,20.27
2018-10-05T15:31:42.538Z,20.17
2018-10-05T15:34:13.329Z,20.06
2018-10-05T15:36:44.183Z,20.03
2018-10-05T15:39:15.049Z,20.07
2018-10-05T15:41:45.708Z,20.06
2018-10-05T15:44:16.411Z,19.76
2018-10-05T15:47:05.589Z,19.56
2018-10-05T15:49:36.416Z,19.67
2018-10-05T15:52:06.763Z,19.60
2018-10-05T15:54:37.427Z,19.56
2018-10-05T15:57:07.969Z,19.60
2018-10-05T15:59:38.802Z,19.48
2018-10-05T16:02:09.425Z,19.57
2018-10-05T16:04:54.553Z,19.52
2018-10-05T16:07:30.340Z,19.35
2018-10-05T16:10:00.914Z,19.38
2018-10-05T16:12:31.397Z,19.28
2018-10-05T16:15:01.895Z,19.32
2018-10-05T16:17:32.890Z,19.25
2018-10-05T16:20:03.800Z,18.93
2018-10-05T16:22:34.372Z,18.96
2018-10-05T16:25:05.337Z,19.06
2018-10-05T16:27:35.920Z,18.89
2018-10-05T16:30:07.785Z,18.85
2018-10-05T16:32:38.521Z,18.73
2018-10-05T16:35:09.682Z,18.72
2018-10-05T16:37:40.214Z,18.86
2018-10-05T16:40:10.753Z,18.83
2018-10-05T16:42:41.290Z,18.50
2018-10-05T16:45:11.825Z,18.54
2018-10-05T16:47:42.645Z,18.51
2018-10-05T16:50:13.462Z,18.40
2018-10-05T16:52:44.284Z,18.39
2018-10-05T16:55:15.749Z,18.23
2018-10-05T16:57:46.268Z,18.19
2018-10-05T17:00:16.894Z,18.10
2018-10-05T17:02:47.972Z,18.02
2018-10-05T17:05:18.213Z,17.99
2018-10-05T17:07:48.965Z,17.82
2018-10-05T17:10:19.584Z,17.77
2018-10-05T17:12:50.289Z,17.83
2018-10-05T17:15:20.560Z,17.67
2018-10-05T17:17:51.960Z,17.55
2018-10-05T17:20:22.480Z,17.45
2018-10-05T17:22:53.197Z,17.38
2018-10-05T17:25:23.733Z,17.42
2018-10-05T17:27:55.048Z,17.28
2018-10-05T17:30:25.325Z,17.11
2018-10-05T17:32:56.142Z,17.06
2018-10-05T17:35:26.755Z,17.14
2018-10-05T17:37:57.576Z,17.00
2018-10-05T17:40:28.125Z,17.00
2018-10-05T17:43:00.150Z,16.98
2018-10-05T17:45:31.033Z,16.93
2018-10-05T17:48:01.767Z,16.92
2018-10-05T17:50:32.391Z,16.81
2018-10-05T17:53:02.869Z,16.92
2018-10-05T17:55:33.567Z,16.96
2018-10-05T17:58:04.637Z,16.80
2018-10-05T18:00:35.210Z,16.80
2018-10-05T18:03:05.957Z,16.78
2018-10-05T18:05:36.478Z,16.79
2018-10-05T18:08:07.265Z,16.67
2018-10-05T18:10:38.358Z,16.69
2018-10-05T18:13:08.892Z,16.68
2018-10-05T18:15:39.831Z,16.73
2018-10-05T18:18:10.346Z,16.70
2018-10-05T18:20:40.918Z,16.76
2018-10-05T18:23:11.506Z,16.84
2018-10-05T18:25:42.084Z,16.75
2018-10-05T18:28:12.792Z,16.66
2018-10-05T18:30:43.437Z,16.69
2018-10-05T18:33:14.150Z,16.72
2018-10-05T18:35:44.833Z,16.73
2018-10-05T18:38:16.460Z,16.70
2018-10-05T18:40:47.206Z,16.49
2018-10-05T18:43:17.501Z,16.53
2018-10-05T18:45:48.304Z,16.56
2018-10-05T18:48:18.850Z,16.55
2018-10-05T18:50:49.677Z,16.59
2018-10-05T18:53:20.062Z,16.66
2018-10-05T18:55:50.336Z,16.73
2018-10-05T18:58:20.672Z,16.66
2018-10-05T19:00:51.229Z,16.69
2018-10-05T19:03:21.521Z,16.52
2018-10-05T19:05:52.284Z,16.77
2018-10-05T19:08:22.888Z,16.72
2018-10-05T19:10:53.137Z,16.62
2018-10-05T19:13:23.777Z,16.61
2018-10-05T19:15:54.313Z,16.45
2018-10-05T19:18:24.879Z,16.52
2018-10-05T19:20:55.947Z,16.50
2018-10-05T19:23:27.101Z,16.36
2018-10-05T19:25:58.149Z,16.29
2018-10-05T19:28:28.872Z,16.25
2018-10-05T19:31:00.159Z,16.42
2018-10-05T19:33:32.005Z,16.35
2018-10-05T19:36:02.292Z,16.31
2018-10-05T19:38:33.125Z,16.26
2018-10-05T19:41:03.648Z,16.35
2018-10-05T19:43:34.201Z,16.38
2018-10-05T19:46:04.474Z,16.43
2018-10-05T19:48:35.267Z,16.47
2018-10-05T19:51:05.828Z,16.46
2018-10-05T19:53:36.418Z,16.27
2018-10-05T19:56:07.045Z,16.34
2018-10-05T19:58:37.608Z,16.47
2018-10-05T20:01:08.294Z,16.39
2018-10-05T20:03:38.550Z,16.29
2018-10-05T20:06:09.245Z,16.12
2018-10-05T20:08:39.506Z,16.34
2018-10-05T20:11:10.066Z,16.39
2018-10-05T20:13:40.533Z,16.52
2018-10-05T20:16:11.062Z,16.15
2018-10-05T20:18:41.376Z,16.27
2018-10-05T20:21:11.645Z,16.44
2018-10-05T20:23:42.203Z,16.49
2018-10-05T20:26:12.495Z,16.44
2018-10-05T20:28:42.714Z,16.35
2018-10-05T20:31:13.838Z,16.55
2018-10-05T20:33:44.153Z,16.49
2018-10-05T20:36:14.785Z,16.65
2018-10-05T20:38:45.172Z,16.75
2018-10-05T20:41:16.796Z,16.92
2018-10-05T20:43:47.826Z,17.12
2018-10-05T20:46:18.429Z,17.09
2018-10-05T20:48:49.153Z,17.02
2018-10-05T20:51:19.745Z,16.78
2018-10-05T20:53:50.337Z,16.90
2018-10-05T20:56:20.619Z,17.01
2018-10-05T20:58:51.324Z,17.06
2018-10-05T21:01:21.569Z,17.15
2018-10-05T21:03:51.941Z,16.99
2018-10-05T21:06:22.985Z,16.78
2018-10-05T21:08:53.679Z,16.59
2018-10-05T21:11:24.268Z,16.57
2018-10-05T21:13:54.795Z,16.36
2018-10-05T21:16:25.094Z,16.35
2018-10-05T21:18:55.692Z,16.31
2018-10-05T21:21:26.524Z,16.19
2018-10-05T21:23:56.915Z,16.26
2018-10-05T21:26:28.053Z,16.10
2018-10-05T21:29:00.014Z,16.09
2018-10-05T21:31:30.685Z,16.03
2018-10-05T21:34:01.365Z,16.08
2018-10-05T21:36:32.372Z,16.07
2018-10-05T21:39:05.243Z,16.28
2018-10-05T21:41:35.536Z,16.35
2018-10-05T21:44:05.829Z,16.34
2018-10-05T21:46:36.352Z,16.67
2018-10-05T21:49:06.949Z,16.63
2018-10-05T21:51:37.657Z,16.32
2018-10-05T21:54:08.380Z,16.03
2018-10-05T21:56:39.089Z,16.16
2018-10-05T21:59:09.645Z,16.08
2018-10-05T22:01:39.967Z,15.52
2018-10-05T22:04:10.281Z,15.66
2018-10-05T22:06:40.539Z,15.58
2018-10-05T22:09:11.610Z,15.76
2018-10-05T22:11:41.821Z,15.81
2018-10-05T22:14:12.047Z,15.89
2018-10-05T22:16:42.336Z,15.77
2018-10-05T22:19:12.872Z,15.77
2018-10-05T22:21:43.691Z,15.99
2018-10-05T22:24:14.257Z,15.97
2018-10-05T22:26:45.060Z,15.80
2018-10-05T22:29:15.585Z,15.58
2018-10-05T22:31:45.837Z,15.58
2018-10-05T22:34:16.518Z,15.62
2018-10-05T22:36:47.294Z,15.58
2018-10-05T22:39:17.830Z,15.55
2018-10-05T22:41:48.863Z,15.58
2018-10-05T22:44:19.410Z,15.57
2018-10-05T22:46:49.954Z,15.60
2018-10-05T22:49:20.218Z,15.51
2018-10-05T22:51:50.699Z,15.74
2018-10-05T22:54:21.535Z,15.65
2018-10-05T22:56:51.759Z,15.63
2018-10-05T22:59:22.000Z,15.67
2018-10-05T23:01:52.951Z,15.63
2018-10-05T23:04:23.333Z,15.49
2018-10-05T23:06:53.853Z,15.63
2018-10-05T23:09:24.671Z,15.55
2018-10-05T23:11:55.216Z,15.51
2018-10-05T23:14:25.770Z,15.50
2018-10-05T23:16:57.264Z,15.68
2018-10-05T23:19:28.037Z,15.59
2018-10-05T23:21:58.567Z,15.89
2018-10-05T23:24:29.399Z,15.59
2018-10-05T23:27:00.266Z,15.60
2018-10-05T23:29:30.801Z,15.72
2018-10-05T23:32:01.341Z,15.61
2018-10-05T23:34:31.999Z,15.70
2018-10-05T23:37:02.663Z,15.93
2018-10-05T23:39:32.925Z,16.06
2018-10-05T23:42:03.791Z,16.35
2018-10-05T23:44:34.318Z,16.38
2018-10-05T23:47:04.789Z,16.08
2018-10-05T23:49:35.342Z,15.73
2018-10-05T23:52:39.664Z,15.56
2018-10-05T23:57:55.145Z,15.17
